หน้าหลัก
METAR-TAF:

METAR-TAF

ท่าอากาศยาน :

เจอร์ซีย์,

ละติจูด: 49-13N, ลองจิจูด: 002-12W, ความสูง: 84 ม.

การสังเกตสภาพอากาศปัจจุบัน

รายงานได้ทำขึ้นเมื่อ 46 นาทีที่แล้ว ณ เวลา 04:20 UTC
ลม 3 นอตจากใต้, แปรผันระหว่างตะวันออกเฉียงใต้ และใต้/ตะวันตกเฉียงใต้
อุณหภูมิ 11°C
ความชื้น 87%
ความกดอากาศ 1018 hPa
ทัศนวิสัย 10 กม. หรือมากกว่า

METAR: EGJJ 130420Z AUTO 18003KT 140V210 9999 NCD 11/09 Q1018

เวลา: 06:06 (05:06 UTC)

การพยากรณ์

รายงานได้ทำขึ้นเมื่อ 3 ชั่วโมงและ 12 นาทีที่แล้ว ณ เวลา 01:54 UTC
การพยากรณ์มีผลตั้งแต่วันที่ 13 ณ เวลา 03 UTC จนถึงวันที่ 13 ณ เวลา 12 UTC
ลม 5 นอตจากตะวันตก/ตะวันตกเฉียงใต้
ทัศนวิสัย 10 กม. หรือมากกว่า
มีเมฆน้อยที่ความสูง 1500 ฟุต
กำลังกลายเป็น
ตั้งแต่วันที่ 13 ณ เวลา 07 UTC จนถึงวันที่ 13 ณ เวลา 09 UTC
ลม 15 นอตจากใต้

TAF: EGJJ 130154Z 1303/1312 24005KT 9999 FEW015 BECMG 1307/1309 19015KT

สังเกตการณ์สภาพอากาศและพยากรณ์อากาศของสนามบินมากกว่า 4000 แห่ง (รายงาน METAR และ TAF).

สถานีที่ดูได้จะแสดงไว้ด้วยจุดสีเหลืองและสีแดงบนแผนที่.

เลื่อนเมาส์ไปเหนือจุดเพื่อดูชื่อสถานี.

แล้วคลิกเพื่อดูสังเกตการณ์และการพยากรณ์สภาพอากาศ.

ในการเปลี่ยนแผนที่: คลิกที่ปุ่มสีเขียวที่มีกากบาทสีดำเพื่อซูมเข้า; ที่ปุ่มสีเขียวที่มีขีดเพื่อซูมออก; หรือที่ลูกศรสีเขียวเพื่อไปยังแผนที่ที่อยู่ติดกัน.


METAR-TAF: